createdAt,value
2019-04-14T00:00:51.906Z,0.00
2019-04-14T00:01:52.299Z,0.00
2019-04-14T00:02:51.858Z,0.00
2019-04-14T00:03:52.238Z,0.00
2019-04-14T00:04:52.744Z,0.00
2019-04-14T00:05:52.121Z,0.00
2019-04-14T00:06:52.588Z,0.00
2019-04-14T00:07:51.817Z,0.00
2019-04-14T00:08:52.240Z,0.00
2019-04-14T00:09:52.059Z,0.00
2019-04-14T00:10:52.858Z,0.00
2019-04-14T00:11:52.701Z,0.00
2019-04-14T00:12:51.639Z,0.00
2019-04-14T00:13:52.425Z,0.00
2019-04-14T00:14:51.594Z,0.00
2019-04-14T00:15:53.168Z,0.00
2019-04-14T00:16:51.551Z,0.00
2019-04-14T00:17:52.542Z,0.00
2019-04-14T00:18:51.507Z,0.00
2019-04-14T00:19:52.416Z,0.00
2019-04-14T00:20:51.463Z,0.00
2019-04-14T00:21:52.239Z,0.00
2019-04-14T00:22:51.421Z,0.00
2019-04-14T00:23:52.236Z,0.00
2019-04-14T00:24:51.373Z,0.00
2019-04-14T00:25:52.228Z,0.00
2019-04-14T00:26:51.345Z,0.00
2019-04-14T00:27:52.191Z,0.00
2019-04-14T00:28:51.307Z,0.00
2019-04-14T00:29:52.399Z,0.00
2019-04-14T00:30:51.305Z,0.00
2019-04-14T00:31:53.721Z,0.00
2019-04-14T00:32:51.200Z,0.00
2019-04-14T00:33:52.099Z,0.00
2019-04-14T00:34:51.157Z,0.00
2019-04-14T00:35:51.601Z,0.00
2019-04-14T00:36:52.265Z,0.00
2019-04-14T00:37:51.163Z,0.00
2019-04-14T00:38:52.003Z,0.00
2019-04-14T00:39:51.205Z,0.00
2019-04-14T00:40:51.826Z,0.00
2019-04-14T00:41:55.532Z,0.00
2019-04-14T00:42:51.586Z,0.00
2019-04-14T00:43:50.972Z,0.00
2019-04-14T00:44:51.833Z,0.00
2019-04-14T00:45:53.585Z,0.00
2019-04-14T00:46:51.702Z,0.00
2019-04-14T00:47:59.550Z,0.00
2019-04-14T00:48:51.800Z,0.00
2019-04-14T00:49:50.978Z,0.00
2019-04-14T00:50:51.752Z,0.00
2019-04-14T00:51:50.883Z,0.00
2019-04-14T00:52:50.757Z,0.00
2019-04-14T00:53:51.299Z,0.00
2019-04-14T00:54:50.717Z,0.00
2019-04-14T00:55:51.127Z,0.00
2019-04-14T00:56:51.755Z,0.00
2019-04-14T00:57:50.917Z,0.00
2019-04-14T00:58:51.752Z,0.00
2019-04-14T00:59:50.899Z,0.00
2019-04-14T01:00:51.769Z,0.00
2019-04-14T01:01:50.557Z,0.00
2019-04-14T01:02:51.593Z,0.00
2019-04-14T01:03:50.574Z,0.00
2019-04-14T01:04:51.320Z,0.00
2019-04-14T01:05:50.465Z,0.00
2019-04-14T01:06:51.147Z,0.00
2019-04-14T01:07:50.429Z,0.00
2019-04-14T01:08:51.170Z,0.00
2019-04-14T01:09:51.047Z,0.00
2019-04-14T01:10:51.869Z,0.00
2019-04-14T01:11:51.009Z,0.00
2019-04-14T01:12:50.310Z,0.00
2019-04-14T01:13:50.807Z,0.00
2019-04-14T01:14:50.264Z,0.00
2019-04-14T01:15:58.679Z,0.00
2019-04-14T01:16:50.220Z,0.00
2019-04-14T01:17:50.679Z,0.00
2019-04-14T01:18:51.474Z,0.00
2019-04-14T01:19:50.621Z,0.00
2019-04-14T01:20:51.325Z,0.00
2019-04-14T01:21:50.342Z,0.00
2019-04-14T01:22:51.009Z,0.00
2019-04-14T01:23:50.218Z,0.00
2019-04-14T01:24:51.053Z,0.00
2019-04-14T01:25:50.025Z,0.00
2019-04-14T01:26:50.673Z,0.00
2019-04-14T01:27:49.975Z,0.00
2019-04-14T01:28:50.451Z,0.00
2019-04-14T01:29:49.929Z,0.00
2019-04-14T01:30:50.160Z,0.00
2019-04-14T01:31:49.889Z,0.00
2019-04-14T01:32:50.129Z,0.00
2019-04-14T01:33:51.117Z,0.00
2019-04-14T01:34:52.042Z,0.00
2019-04-14T01:35:50.912Z,0.00
2019-04-14T01:36:49.779Z,0.00
2019-04-14T01:37:50.731Z,0.00
2019-04-14T01:38:49.732Z,0.00
2019-04-14T01:39:50.225Z,0.00
2019-04-14T01:40:50.919Z,0.00
2019-04-14T01:41:49.961Z,0.00
2019-04-14T01:42:50.629Z,0.00
2019-04-14T01:43:49.691Z,0.00
2019-04-14T01:44:50.335Z,0.00
2019-04-14T01:46:04.319Z,0.00
2019-04-14T01:46:49.870Z,0.00
2019-04-14T01:47:49.537Z,0.00
2019-04-14T01:48:49.632Z,0.00
2019-04-14T01:49:49.486Z,0.00
2019-04-14T01:50:49.620Z,0.00
2019-04-14T01:51:50.633Z,0.00
2019-04-14T01:52:50.169Z,0.00
2019-04-14T01:53:49.398Z,0.00
2019-04-14T01:54:49.502Z,0.00
2019-04-14T01:55:50.447Z,0.00
2019-04-14T01:56:49.330Z,0.00
2019-04-14T01:57:50.296Z,0.00
2019-04-14T01:58:49.290Z,0.00
2019-04-14T01:59:50.339Z,0.00
2019-04-14T02:00:49.479Z,0.00
2019-04-14T02:01:49.937Z,0.00
2019-04-14T02:02:49.200Z,0.00
2019-04-14T02:03:49.873Z,0.00
2019-04-14T02:04:49.152Z,0.00
2019-04-14T02:05:49.600Z,0.00
2019-04-14T02:06:49.105Z,0.00
2019-04-14T02:07:49.432Z,0.00
2019-04-14T02:08:50.138Z,0.00
2019-04-14T02:09:49.052Z,0.00
2019-04-14T02:10:49.927Z,0.00
2019-04-14T02:11:48.999Z,0.00
2019-04-14T02:12:49.598Z,0.00
2019-04-14T02:13:48.951Z,0.00
2019-04-14T02:14:49.499Z,0.00
2019-04-14T02:15:48.910Z,0.00
2019-04-14T02:16:54.092Z,0.00
2019-04-14T02:17:50.173Z,0.00
2019-04-14T02:18:51.712Z,0.00
2019-04-14T02:19:48.860Z,0.00
2019-04-14T02:20:49.129Z,0.00
2019-04-14T02:21:49.918Z,0.00
2019-04-14T02:22:48.750Z,0.00
2019-04-14T02:23:49.815Z,0.00
2019-04-14T02:24:48.706Z,0.00
2019-04-14T02:25:49.401Z,0.00
2019-04-14T02:26:48.661Z,0.00
2019-04-14T02:27:49.352Z,0.00
2019-04-14T02:28:48.615Z,0.00
2019-04-14T02:29:49.512Z,0.00
2019-04-14T02:31:00.247Z,0.00
2019-04-14T02:32:18.560Z,0.00
2019-04-14T02:33:17.286Z,0.00
2019-04-14T02:34:21.995Z,0.00
2019-04-14T02:36:21.639Z,0.00
2019-04-14T02:37:28.309Z,0.00
2019-04-14T02:38:23.385Z,0.00
2019-04-14T02:39:35.903Z,0.00
2019-04-14T02:40:18.480Z,0.00
2019-04-14T02:41:43.791Z,0.00
2019-04-14T02:43:23.862Z,0.00
2019-04-14T02:44:24.134Z,0.00
2019-04-14T02:45:19.296Z,0.00
2019-04-14T02:46:10.757Z,0.00
2019-04-14T02:47:37.951Z,0.00
2019-04-14T02:48:25.833Z,0.00
2019-04-14T02:49:16.042Z,0.00
2019-04-14T02:50:20.287Z,0.00
2019-04-14T02:52:19.834Z,0.00
2019-04-14T02:53:19.082Z,0.00
2019-04-14T02:54:11.883Z,0.00
2019-04-14T02:55:12.212Z,0.00
2019-04-14T02:56:15.583Z,0.00
2019-04-14T02:57:19.041Z,0.00
2019-04-14T02:58:20.648Z,0.00
2019-04-14T02:59:16.226Z,0.00
2019-04-14T03:00:19.664Z,0.00
2019-04-14T03:01:24.187Z,0.00
2019-04-14T03:02:23.126Z,0.00
2019-04-14T03:03:16.512Z,0.00
2019-04-14T03:04:17.142Z,0.00
2019-04-14T03:05:09.395Z,0.00
2019-04-14T03:06:14.500Z,0.00
2019-04-14T03:07:16.281Z,0.00
2019-04-14T03:08:22.258Z,0.00
2019-04-14T03:10:20.393Z,0.00
2019-04-14T03:11:17.431Z,0.00
2019-04-14T03:12:19.169Z,0.00
2019-04-14T03:13:29.362Z,0.00
2019-04-14T03:14:19.368Z,0.00
2019-04-14T03:15:17.654Z,0.00
2019-04-14T03:16:23.297Z,0.00
2019-04-14T03:17:21.395Z,0.00
2019-04-14T03:19:14.553Z,0.00
2019-04-14T03:20:20.503Z,0.00
2019-04-14T03:21:30.576Z,0.00
2019-04-14T03:22:26.126Z,0.00
2019-04-14T03:23:19.286Z,0.00
2019-04-14T03:24:10.926Z,0.00
2019-04-14T03:25:00.473Z,0.00
2019-04-14T03:26:11.770Z,0.00
2019-04-14T03:27:13.617Z,0.00
2019-04-14T03:28:12.207Z,0.00
2019-04-14T03:29:19.562Z,0.00
2019-04-14T03:30:33.516Z,0.00
2019-04-14T03:32:23.672Z,0.00
2019-04-14T03:33:32.141Z,0.00
2019-04-14T03:35:47.286Z,0.00
2019-04-14T03:36:43.987Z,0.00
2019-04-14T03:37:39.595Z,0.00
2019-04-14T03:38:18.275Z,0.00
2019-04-14T03:39:36.956Z,0.00
2019-04-14T03:40:08.465Z,0.00
2019-04-14T03:41:16.777Z,0.00
2019-04-14T03:43:19.463Z,0.00
2019-04-14T03:44:18.059Z,0.00
2019-04-14T03:45:14.428Z,0.00
2019-04-14T03:46:23.597Z,0.00
2019-04-14T03:47:13.886Z,0.00
2019-04-14T03:50:17.281Z,0.00
2019-04-14T03:52:13.073Z,0.00
2019-04-14T03:53:15.885Z,0.00
2019-04-14T03:54:20.298Z,0.00
2019-04-14T03:55:02.683Z,0.00
2019-04-14T03:55:54.171Z,0.00
2019-04-14T03:56:46.845Z,0.00
2019-04-14T03:57:47.632Z,0.00
2019-04-14T03:58:46.617Z,0.00
2019-04-14T03:59:47.715Z,0.00
2019-04-14T04:00:46.589Z,0.00
2019-04-14T04:01:47.762Z,0.00
2019-04-14T04:02:46.727Z,0.00
2019-04-14T04:03:46.450Z,0.00
2019-04-14T04:04:46.761Z,0.00
2019-04-14T04:05:46.402Z,0.00
2019-04-14T04:06:46.485Z,0.00
2019-04-14T04:07:47.426Z,0.00
2019-04-14T04:08:46.495Z,4.00
2019-04-14T04:09:47.475Z,4.00
2019-04-14T04:10:46.576Z,0.00
2019-04-14T04:11:47.555Z,4.00
2019-04-14T04:12:46.534Z,4.00
2019-04-14T04:13:46.225Z,0.00
2019-04-14T04:14:46.425Z,4.00
2019-04-14T04:15:46.176Z,4.00
2019-04-14T04:16:46.249Z,8.00
2019-04-14T04:17:47.198Z,8.00
2019-04-14T04:18:56.463Z,8.00
2019-04-14T04:19:46.985Z,8.00
2019-04-14T04:20:46.064Z,12.00
2019-04-14T04:21:46.625Z,12.00
2019-04-14T04:22:46.025Z,12.00
2019-04-14T04:23:46.798Z,16.00
2019-04-14T04:24:45.978Z,20.00
2019-04-14T04:25:46.596Z,20.00
2019-04-14T04:26:47.152Z,24.00
2019-04-14T04:27:46.172Z,28.00
2019-04-14T04:28:47.086Z,36.00
2019-04-14T04:29:46.264Z,36.00
2019-04-14T04:30:46.924Z,44.00
2019-04-14T04:31:46.164Z,48.00
2019-04-14T04:32:46.845Z,52.00
2019-04-14T04:33:45.849Z,56.00
2019-04-14T04:34:46.633Z,64.00
2019-04-14T04:35:45.808Z,72.00
2019-04-14T04:36:46.381Z,80.00
2019-04-14T04:37:45.671Z,84.00
2019-04-14T04:38:46.336Z,96.00
2019-04-14T04:39:45.624Z,104.00
2019-04-14T04:40:46.135Z,112.00
2019-04-14T04:41:45.581Z,124.00
2019-04-14T04:42:45.824Z,132.00
2019-04-14T04:43:45.534Z,144.00
2019-04-14T04:44:46.350Z,152.00
2019-04-14T04:45:45.484Z,164.00
2019-04-14T04:46:45.983Z,176.00
2019-04-14T04:47:45.439Z,188.00
2019-04-14T04:48:58.244Z,200.00
2019-04-14T04:49:45.397Z,216.00
2019-04-14T04:50:45.434Z,236.00
2019-04-14T04:51:46.436Z,256.00
2019-04-14T04:52:45.325Z,276.00
2019-04-14T04:53:46.207Z,304.00
2019-04-14T04:54:45.284Z,328.00
2019-04-14T04:55:46.061Z,356.00
2019-04-14T04:56:45.232Z,384.00
2019-04-14T04:57:45.994Z,408.00
2019-04-14T04:58:45.647Z,440.00
2019-04-14T04:59:45.346Z,468.00
2019-04-14T05:00:47.351Z,500.00
2019-04-14T05:01:45.222Z,536.00
2019-04-14T05:02:46.063Z,568.00
2019-04-14T05:03:45.070Z,604.00
2019-04-14T05:04:46.026Z,640.00
2019-04-14T05:05:45.044Z,676.00
2019-04-14T05:06:45.904Z,716.00
2019-04-14T05:07:44.978Z,748.00
2019-04-14T05:08:45.552Z,788.00
2019-04-14T05:09:44.947Z,832.00
2019-04-14T05:10:45.702Z,876.00
2019-04-14T05:11:44.889Z,916.00
2019-04-14T05:12:45.662Z,960.00
2019-04-14T05:13:44.840Z,1008.00
2019-04-14T05:14:45.580Z,1052.00
2019-04-14T05:15:44.799Z,1096.00
2019-04-14T05:16:44.773Z,1144.00
2019-04-14T05:17:45.243Z,1192.00
2019-04-14T05:18:44.724Z,1244.00
2019-04-14T05:19:45.470Z,1300.00
2019-04-14T05:20:44.680Z,1356.00
2019-04-14T05:21:45.246Z,1412.00
2019-04-14T05:22:44.635Z,1468.00
2019-04-14T05:23:45.345Z,1524.00
2019-04-14T05:24:44.604Z,1584.00
2019-04-14T05:25:45.204Z,1644.00
2019-04-14T05:26:44.545Z,1700.00
2019-04-14T05:27:45.193Z,1760.00
2019-04-14T05:28:44.495Z,1820.00
2019-04-14T05:29:45.080Z,1876.00
2019-04-14T05:30:45.723Z,1936.00
2019-04-14T05:31:44.748Z,1992.00
2019-04-14T05:32:45.449Z,2056.00
2019-04-14T05:33:44.778Z,2120.00
2019-04-14T05:34:45.408Z,2180.00
2019-04-14T05:35:44.567Z,2244.00
2019-04-14T05:36:45.364Z,2308.00
2019-04-14T05:37:44.435Z,2376.00
2019-04-14T05:38:45.017Z,2440.00
2019-04-14T05:39:44.245Z,2508.00
2019-04-14T05:40:45.066Z,2576.00
2019-04-14T05:41:58.983Z,2644.00
2019-04-14T05:42:45.034Z,2712.00
2019-04-14T05:43:51.427Z,2776.00
2019-04-14T05:44:44.824Z,2844.00
2019-04-14T05:45:44.107Z,2912.00
2019-04-14T05:46:44.681Z,2984.00
2019-04-14T05:47:44.088Z,3060.00
2019-04-14T05:48:44.653Z,3140.00
2019-04-14T05:49:48.262Z,3224.00
2019-04-14T05:50:44.405Z,3296.00
2019-04-14T05:51:43.975Z,3376.00
2019-04-14T05:52:44.721Z,3448.00
2019-04-14T05:53:43.954Z,3520.00
2019-04-14T05:54:44.699Z,3588.00
2019-04-14T05:55:43.894Z,3660.00
2019-04-14T05:56:44.734Z,3732.00
2019-04-14T05:57:43.881Z,3820.00
2019-04-14T05:58:44.758Z,3896.00
2019-04-14T05:59:44.104Z,3968.00
2019-04-14T06:00:43.821Z,4040.00
2019-04-14T06:01:44.288Z,4108.00
2019-04-14T06:02:44.152Z,4180.00
2019-04-14T06:03:43.714Z,4260.00
2019-04-14T06:04:43.992Z,4344.00
2019-04-14T06:05:44.927Z,4432.00
2019-04-14T06:06:43.639Z,4524.00
2019-04-14T06:07:43.620Z,4628.00
2019-04-14T06:08:43.598Z,4728.00
2019-04-14T06:09:43.573Z,4812.00
2019-04-14T06:10:43.550Z,4896.00
2019-04-14T06:11:43.530Z,4988.00
2019-04-14T06:12:43.505Z,5072.00
2019-04-14T06:13:43.499Z,5144.00
2019-04-14T06:14:43.459Z,5248.00
2019-04-14T06:15:43.435Z,5344.00
2019-04-14T06:16:43.420Z,5432.00
2019-04-14T06:17:43.393Z,5532.00
2019-04-14T06:18:43.370Z,5612.00
2019-04-14T06:19:43.348Z,5704.00
2019-04-14T06:20:43.333Z,5796.00
2019-04-14T06:21:43.305Z,5876.00
2019-04-14T06:22:43.291Z,5988.00
2019-04-14T06:23:43.261Z,6096.00
2019-04-14T06:24:43.238Z,6200.00
2019-04-14T06:25:43.218Z,6260.00
2019-04-14T06:26:43.196Z,6328.00
2019-04-14T06:27:43.173Z,6436.00
2019-04-14T06:28:43.152Z,6536.00
2019-04-14T06:29:43.128Z,6640.00
2019-04-14T06:30:43.107Z,6788.00
2019-04-14T06:31:43.085Z,6876.00
2019-04-14T06:32:43.070Z,6944.00
2019-04-14T06:33:43.039Z,7064.00
2019-04-14T06:34:43.022Z,7168.00
2019-04-14T06:35:43.002Z,7248.00
2019-04-14T06:36:42.981Z,7356.00
2019-04-14T06:37:43.267Z,7416.00
2019-04-14T06:38:42.934Z,7600.00
2019-04-14T06:39:42.909Z,8196.00
2019-04-14T06:40:42.889Z,16224.00
2019-04-14T06:41:42.894Z,26784.00
2019-04-14T06:42:42.848Z,32352.00
2019-04-14T06:43:48.643Z,32544.00
2019-04-14T06:44:42.803Z,32032.00
2019-04-14T06:45:42.795Z,32736.00
2019-04-14T06:46:42.760Z,35488.00
2019-04-14T06:47:42.746Z,37184.00
2019-04-14T06:48:42.730Z,36704.00
2019-04-14T06:49:48.920Z,37024.00
2019-04-14T06:50:42.683Z,35584.00
2019-04-14T06:51:42.668Z,37152.00
2019-04-14T06:52:42.647Z,39648.00
2019-04-14T06:53:42.637Z,41120.00
2019-04-14T06:54:42.619Z,40384.00
2019-04-14T06:55:42.597Z,28960.00
2019-04-14T06:56:42.581Z,40640.00
2019-04-14T06:57:42.567Z,40064.00
2019-04-14T06:58:42.552Z,38976.00
2019-04-14T06:59:42.540Z,40096.00
2019-04-14T07:00:42.517Z,41728.00
2019-04-14T07:01:42.501Z,39552.00
2019-04-14T07:02:42.697Z,44480.00
2019-04-14T07:03:42.469Z,41184.00
2019-04-14T07:04:42.453Z,42432.00
2019-04-14T07:05:42.451Z,43136.00
2019-04-14T07:06:42.435Z,43392.00
2019-04-14T07:07:42.411Z,43072.00
2019-04-14T07:08:42.410Z,44000.00
2019-04-14T07:09:42.385Z,44224.00
2019-04-14T07:10:42.375Z,44640.00
2019-04-14T07:11:42.365Z,44832.00
2019-04-14T07:12:43.185Z,44832.00
2019-04-14T07:13:42.331Z,45376.00
2019-04-14T07:14:42.324Z,45248.00
2019-04-14T07:15:42.321Z,48288.00
2019-04-14T07:16:42.292Z,47168.00
2019-04-14T07:17:42.279Z,47424.00
2019-04-14T07:18:42.267Z,44992.00
2019-04-14T07:19:42.256Z,46688.00
2019-04-14T07:20:42.247Z,47776.00
2019-04-14T07:21:42.233Z,48160.00
2019-04-14T07:22:42.230Z,50400.00
2019-04-14T07:23:42.218Z,48800.00
2019-04-14T07:24:42.218Z,49280.00
2019-04-14T07:25:42.191Z,49440.00
2019-04-14T07:26:42.187Z,50848.00
2019-04-14T07:27:42.174Z,49824.00
2019-04-14T07:28:42.162Z,47904.00
2019-04-14T07:29:42.527Z,51296.00
2019-04-14T07:30:42.142Z,52928.00
2019-04-14T07:31:42.135Z,53504.00
2019-04-14T07:32:42.126Z,53184.00
2019-04-14T07:33:42.113Z,52160.00
2019-04-14T07:34:42.097Z,52992.00
2019-04-14T07:35:42.089Z,55776.00
2019-04-14T07:36:42.081Z,53120.00
2019-04-14T07:37:42.070Z,52704.00
2019-04-14T07:38:42.063Z,54208.00
2019-04-14T07:39:42.056Z,54816.00
2019-04-14T07:40:42.055Z,55040.00
2019-04-14T07:41:42.036Z,54432.00
2019-04-14T07:42:42.024Z,56864.00
2019-04-14T07:43:42.023Z,56256.00
2019-04-14T07:44:42.007Z,56512.00
2019-04-14T07:45:41.997Z,54496.00
2019-04-14T07:46:41.989Z,53248.00
2019-04-14T07:47:41.982Z,55872.00
2019-04-14T07:48:41.973Z,57600.00
2019-04-14T07:49:41.981Z,55744.00
2019-04-14T07:50:41.960Z,54720.00
2019-04-14T07:51:41.954Z,56416.00
2019-04-14T07:52:41.940Z,59200.00
2019-04-14T07:53:41.935Z,57440.00
2019-04-14T07:54:41.945Z,55104.00
2019-04-14T07:55:41.923Z,55072.00
2019-04-14T07:56:41.916Z,58656.00
2019-04-14T07:57:41.906Z,61056.00
2019-04-14T07:58:41.902Z,61472.00
2019-04-14T07:59:41.896Z,59200.00
2019-04-14T08:00:41.890Z,58016.00
2019-04-14T08:01:41.882Z,59776.00
2019-04-14T08:02:41.875Z,63264.00
2019-04-14T08:03:41.867Z,62880.00
2019-04-14T08:04:41.862Z,61056.00
2019-04-14T08:05:41.866Z,62528.00
2019-04-14T08:06:41.862Z,62464.00
2019-04-14T08:07:41.849Z,60384.00
2019-04-14T08:08:41.852Z,60832.00
2019-04-14T08:09:41.841Z,64416.00
2019-04-14T08:10:41.829Z,63296.00
2019-04-14T08:11:41.830Z,61312.00
2019-04-14T08:12:41.829Z,62464.00
2019-04-14T08:13:41.832Z,63136.00
2019-04-14T08:14:41.807Z,62432.00
2019-04-14T08:15:41.809Z,64416.00
2019-04-14T08:16:41.798Z,62400.00
2019-04-14T08:17:43.594Z,61216.00
2019-04-14T08:18:41.798Z,59552.00
2019-04-14T08:19:41.783Z,58592.00
2019-04-14T08:20:41.783Z,60160.00
2019-04-14T08:21:41.772Z,61760.00
2019-04-14T08:22:41.767Z,62048.00
2019-04-14T08:23:41.769Z,63456.00
2019-04-14T08:24:41.767Z,62688.00
2019-04-14T08:25:41.754Z,63104.00
2019-04-14T08:26:41.756Z,62400.00
2019-04-14T08:27:41.744Z,62464.00
2019-04-14T08:28:41.739Z,62240.00
2019-04-14T08:29:41.733Z,61984.00
2019-04-14T08:30:41.735Z,60928.00
2019-04-14T08:31:41.728Z,62720.00
2019-04-14T08:32:41.723Z,60640.00
2019-04-14T08:33:41.724Z,57472.00
2019-04-14T08:34:41.715Z,61280.00
2019-04-14T08:35:41.710Z,61312.00
2019-04-14T08:36:41.712Z,60288.00
2019-04-14T08:37:41.705Z,61056.00
2019-04-14T08:38:41.702Z,60064.00
2019-04-14T08:39:41.702Z,61472.00
2019-04-14T08:40:41.692Z,61216.00
2019-04-14T08:41:41.687Z,59104.00
2019-04-14T08:42:41.682Z,58560.00
2019-04-14T08:43:41.679Z,61696.00
2019-04-14T08:44:41.688Z,60896.00
2019-04-14T08:45:41.882Z,60608.00
2019-04-14T08:46:41.664Z,59008.00
2019-04-14T08:47:41.711Z,58176.00
2019-04-14T08:48:41.658Z,60000.00
2019-04-14T08:49:41.651Z,61280.00
2019-04-14T08:50:41.671Z,58208.00
2019-04-14T08:51:41.645Z,61664.00
2019-04-14T08:52:41.846Z,60416.00
2019-04-14T08:53:41.637Z,59264.00
2019-04-14T08:54:41.633Z,61056.00
2019-04-14T08:55:41.626Z,57024.00
2019-04-14T08:56:41.622Z,57824.00
2019-04-14T08:57:41.618Z,61856.00
2019-04-14T08:58:41.630Z,60544.00
2019-04-14T08:59:41.616Z,57216.00
2019-04-14T09:00:41.629Z,58400.00
2019-04-14T09:01:41.602Z,56576.00
2019-04-14T09:02:41.598Z,55168.00
2019-04-14T09:03:41.596Z,53824.00
2019-04-14T09:04:41.795Z,57280.00
2019-04-14T09:05:41.591Z,60480.00
2019-04-14T09:06:41.578Z,57760.00
2019-04-14T09:07:41.584Z,59136.00
2019-04-14T09:08:41.577Z,57696.00
2019-04-14T09:09:41.575Z,57216.00
2019-04-14T09:10:41.567Z,59104.00
2019-04-14T09:11:41.561Z,55136.00
2019-04-14T09:12:41.547Z,51552.00
2019-04-14T09:13:41.541Z,53536.00
2019-04-14T09:14:41.534Z,53472.00
2019-04-14T09:15:41.535Z,50816.00
2019-04-14T09:16:41.524Z,50112.00
2019-04-14T09:17:41.516Z,49856.00
2019-04-14T09:18:41.828Z,51008.00
2019-04-14T09:19:41.516Z,51232.00
2019-04-14T09:20:51.703Z,49056.00
2019-04-14T09:21:41.492Z,46048.00
2019-04-14T09:22:41.489Z,42592.00
2019-04-14T09:23:41.480Z,42496.00
2019-04-14T09:24:41.473Z,38720.00
2019-04-14T09:25:41.463Z,33824.00
2019-04-14T09:26:41.499Z,30816.00
2019-04-14T09:27:41.458Z,29984.00
2019-04-14T09:28:41.449Z,27232.00
2019-04-14T09:29:41.448Z,24160.00
2019-04-14T09:30:41.429Z,19456.00
2019-04-14T09:31:41.418Z,17568.00
2019-04-14T09:32:41.411Z,17312.00
2019-04-14T09:33:41.404Z,17152.00
2019-04-14T09:34:41.398Z,16864.00
2019-04-14T09:35:41.387Z,16576.00
2019-04-14T09:36:41.386Z,16448.00
2019-04-14T09:37:41.371Z,16136.00
2019-04-14T09:38:41.361Z,16012.00
2019-04-14T09:39:41.353Z,15828.00
2019-04-14T09:40:41.353Z,15708.00
2019-04-14T09:41:41.338Z,15756.00
2019-04-14T09:42:41.330Z,15424.00
2019-04-14T09:43:41.322Z,15388.00
2019-04-14T09:44:41.307Z,15260.00
2019-04-14T09:45:41.299Z,15140.00
2019-04-14T09:46:41.293Z,15016.00
2019-04-14T09:47:41.307Z,14928.00
2019-04-14T09:48:42.896Z,14900.00
2019-04-14T09:49:41.273Z,14804.00
2019-04-14T09:50:41.256Z,14840.00
2019-04-14T09:51:41.243Z,14660.00
2019-04-14T09:52:41.239Z,14424.00
2019-04-14T09:53:41.224Z,14340.00
2019-04-14T09:54:41.214Z,14292.00
2019-04-14T09:55:41.212Z,14484.00
2019-04-14T09:56:41.198Z,14144.00
2019-04-14T09:57:41.196Z,14072.00
2019-04-14T09:58:41.178Z,14212.00
2019-04-14T09:59:41.173Z,14152.00
2019-04-14T10:00:41.187Z,14204.00
2019-04-14T10:01:41.151Z,14596.00
2019-04-14T10:02:41.131Z,14996.00
2019-04-14T10:03:41.121Z,14392.00
2019-04-14T10:04:41.113Z,14404.00
2019-04-14T10:05:41.106Z,13084.00
2019-04-14T10:06:41.162Z,9420.00
2019-04-14T10:07:41.136Z,10768.00
2019-04-14T10:08:41.073Z,15352.00
2019-04-14T10:09:41.052Z,15268.00
2019-04-14T10:10:41.048Z,14512.00
2019-04-14T10:11:48.465Z,13792.00
2019-04-14T10:12:41.073Z,10180.00
2019-04-14T10:13:41.005Z,14060.00
2019-04-14T10:14:40.996Z,14700.00
2019-04-14T10:15:40.981Z,13404.00
2019-04-14T10:16:40.976Z,13896.00
2019-04-14T10:17:40.971Z,14084.00
2019-04-14T10:18:40.951Z,13896.00
2019-04-14T10:19:40.941Z,13476.00
2019-04-14T10:20:40.923Z,13444.00
2019-04-14T10:21:40.914Z,13440.00
2019-04-14T10:22:40.901Z,13088.00
2019-04-14T10:23:40.888Z,13108.00
2019-04-14T10:24:40.882Z,13236.00
2019-04-14T10:25:40.864Z,13376.00
2019-04-14T10:26:40.852Z,13068.00
2019-04-14T10:27:40.843Z,13004.00
2019-04-14T10:28:40.829Z,12968.00
2019-04-14T10:29:40.820Z,12972.00
2019-04-14T10:30:40.808Z,12924.00
2019-04-14T10:31:40.794Z,13012.00
2019-04-14T10:32:40.779Z,12832.00
2019-04-14T10:33:40.766Z,12668.00
2019-04-14T10:34:40.780Z,12500.00
2019-04-14T10:35:40.747Z,12232.00
2019-04-14T10:36:40.733Z,12212.00
2019-04-14T10:37:40.724Z,12468.00
2019-04-14T10:38:40.709Z,12688.00
2019-04-14T10:39:40.694Z,12840.00
2019-04-14T10:40:40.680Z,12676.00
2019-04-14T10:41:40.668Z,12700.00
2019-04-14T10:42:40.656Z,12896.00
2019-04-14T10:43:40.646Z,12800.00
2019-04-14T10:44:40.631Z,12560.00
2019-04-14T10:45:40.629Z,12428.00
2019-04-14T10:46:40.612Z,12080.00
2019-04-14T10:47:40.594Z,10592.00
2019-04-14T10:48:40.609Z,12100.00
2019-04-14T10:49:40.569Z,11988.00
2019-04-14T10:50:40.558Z,11944.00
2019-04-14T10:51:40.544Z,12004.00
2019-04-14T10:52:40.532Z,12196.00
2019-04-14T10:53:40.525Z,12320.00
2019-04-14T10:54:40.508Z,12392.00
2019-04-14T10:55:40.495Z,12400.00
2019-04-14T10:56:40.486Z,12448.00
2019-04-14T10:57:40.467Z,12048.00
2019-04-14T10:58:40.458Z,11488.00
2019-04-14T10:59:40.445Z,11004.00
2019-04-14T11:00:40.437Z,10864.00
2019-04-14T11:01:40.418Z,10908.00
2019-04-14T11:02:40.407Z,11140.00
2019-04-14T11:03:40.402Z,11300.00
2019-04-14T11:04:40.388Z,11544.00
2019-04-14T11:05:40.372Z,11380.00
2019-04-14T11:06:40.358Z,11616.00
2019-04-14T11:07:40.353Z,12120.00
2019-04-14T11:08:40.331Z,12336.00
2019-04-14T11:09:40.318Z,12160.00
2019-04-14T11:10:40.315Z,11980.00
2019-04-14T11:11:40.323Z,9896.00
2019-04-14T11:12:40.287Z,8888.00
2019-04-14T11:13:40.269Z,8936.00
2019-04-14T11:14:40.256Z,8448.00
2019-04-14T11:15:40.249Z,7368.00
2019-04-14T11:16:40.233Z,6896.00
2019-04-14T11:17:40.225Z,6500.00
2019-04-14T11:18:40.213Z,6680.00
2019-04-14T11:19:40.191Z,6568.00
2019-04-14T11:20:40.180Z,6856.00
2019-04-14T11:21:42.620Z,8128.00
2019-04-14T11:22:40.153Z,10584.00
2019-04-14T11:23:40.149Z,11184.00
2019-04-14T11:24:40.140Z,11592.00
2019-04-14T11:25:40.127Z,11412.00
2019-04-14T11:26:40.418Z,8100.00
2019-04-14T11:27:40.101Z,11224.00
2019-04-14T11:28:40.073Z,8364.00
2019-04-14T11:29:40.063Z,8572.00
2019-04-14T11:30:40.085Z,7620.00
2019-04-14T11:31:40.041Z,6904.00
2019-04-14T11:32:40.029Z,5824.00
2019-04-14T11:33:40.006Z,5512.00
2019-04-14T11:34:39.996Z,5616.00
2019-04-14T11:35:39.986Z,5752.00
2019-04-14T11:36:39.976Z,5860.00
2019-04-14T11:37:39.952Z,6148.00
2019-04-14T11:38:39.939Z,6748.00
2019-04-14T11:39:39.924Z,11064.00
2019-04-14T11:40:39.922Z,11388.00
2019-04-14T11:41:39.903Z,11308.00
2019-04-14T11:42:51.582Z,11404.00
2019-04-14T11:43:39.876Z,11204.00
2019-04-14T11:44:39.856Z,10088.00
2019-04-14T11:45:39.867Z,6040.00
2019-04-14T11:46:39.829Z,5248.00
2019-04-14T11:47:39.814Z,4844.00
2019-04-14T11:48:39.803Z,4760.00
2019-04-14T11:49:39.787Z,4848.00
2019-04-14T11:50:39.777Z,4968.00
2019-04-14T11:51:39.755Z,5144.00
2019-04-14T11:52:39.748Z,5120.00
2019-04-14T11:53:39.727Z,5044.00
2019-04-14T11:54:40.042Z,5056.00
2019-04-14T11:55:39.713Z,5148.00
2019-04-14T11:56:39.697Z,5436.00
2019-04-14T11:57:39.670Z,8808.00
2019-04-14T11:58:39.669Z,8792.00
2019-04-14T11:59:39.642Z,8732.00
2019-04-14T12:00:39.631Z,5432.00
2019-04-14T12:01:39.629Z,8884.00
2019-04-14T12:02:39.625Z,9220.00
2019-04-14T12:03:39.592Z,9388.00
2019-04-14T12:04:39.579Z,9524.00
2019-04-14T12:05:39.558Z,8100.00
2019-04-14T12:06:39.540Z,10536.00
2019-04-14T12:07:39.539Z,11004.00
2019-04-14T12:08:39.523Z,11132.00
2019-04-14T12:09:39.503Z,11112.00
2019-04-14T12:10:39.489Z,6768.00
2019-04-14T12:11:39.468Z,6492.00
2019-04-14T12:12:39.510Z,5920.00
2019-04-14T12:13:39.440Z,6996.00
2019-04-14T12:14:39.445Z,10072.00
2019-04-14T12:15:39.411Z,10160.00
2019-04-14T12:16:39.397Z,9992.00
2019-04-14T12:17:39.384Z,9120.00
2019-04-14T12:18:39.693Z,8368.00
2019-04-14T12:19:39.359Z,8956.00
2019-04-14T12:20:39.344Z,9724.00
2019-04-14T12:21:39.333Z,10612.00
2019-04-14T12:22:39.317Z,10880.00
2019-04-14T12:23:39.311Z,6820.00
2019-04-14T12:24:39.284Z,10632.00
2019-04-14T12:25:39.275Z,10340.00
2019-04-14T12:26:39.326Z,9080.00
2019-04-14T12:27:39.746Z,4688.00
2019-04-14T12:28:40.374Z,3964.00
2019-04-14T12:29:39.263Z,3680.00
2019-04-14T12:30:39.908Z,3672.00
2019-04-14T12:31:39.629Z,3892.00
2019-04-14T12:32:39.176Z,4148.00